Terminal Aerodrome Forecast
Issued by NWS Quad Cities IA IL

Home | Current Version | Previous Version | Text Only | Print | Product List | Glossary On
Versions: 1 2 3 4 5 6 7 8 9 10 11 12 13 14 15 16 17 18 19 20 21 22 23 24 25 26 27 28 29 30 31 32 33 34 35
000
FTUS43 KDVN 230530
TAFMLI
TAF
KMLI 230530Z 2306/2406 23006KT P6SM OVC050
     FM230800 28008KT 6SM -DZ OVC020
     FM231000 33013KT 2SM -SN BR OVC005
     FM231200 34015G23KT 6SM -SN OVC008
     FM231500 33016G24KT P6SM OVC015
     FM232200 31012KT P6SM BKN025=

USA.gov is the U.S. government's official web portal to all federal, state and local government web resources and services.